Time;durP1;ratioP1;P1;durP2;ratioP2;P2;SDS_P1;SDS_P2;PMS_P1;PMS_P2;Temp;Humidity;BMP_temperature;BMP_pressure;BME280_temperature;BME280_humidity;BME280_pressure;Samples;Min_cycle;Max_cycle;Signal;HPM_P1;HPM_P2
2023/03/27 00:01:32;;;;;;;30.15;20.67;;;;;;;9.42;100.00;99674.78;5006717;28;20124;-70
2023/03/27 00:03:59;;;;;;;23.88;18.63;;;;;;;8.98;100.00;99590.44;5006484;28;20608;-70
2023/03/27 00:06:26;;;;;;;29.52;20.48;;;;;;;9.10;100.00;99657.53;5006715;28;20042;-71
2023/03/27 00:08:52;;;;;;;30.65;18.35;;;;;;;8.53;100.00;99518.38;5007049;28;20038;-69
2023/03/27 00:11:19;;;;;;;27.05;19.33;;;;;;;9.04;100.00;99653.19;5002321;28;20133;-69
2023/03/27 00:13:45;;;;;;;30.38;17.95;;;;;;;8.84;100.00;99571.34;5006795;28;20053;-71
2023/03/27 00:16:11;;;;;;;33.05;20.38;;;;;;;8.88;100.00;99656.78;5004495;28;20042;-69
2023/03/27 00:18:37;;;;;;;26.10;16.48;;;;;;;9.15;100.00;99650.50;5000831;28;20100;-70
2023/03/27 00:21:03;;;;;;;27.17;17.17;;;;;;;9.21;100.00;99639.13;5002363;28;20046;-69
2023/03/27 00:23:30;;;;;;;24.30;17.17;;;;;;;8.59;100.00;99576.75;5006021;28;20092;-70
2023/03/27 00:25:56;;;;;;;26.25;17.52;;;;;;;8.85;100.00;99607.09;5006868;28;20065;-69
2023/03/27 00:28:25;;;;;;;23.48;15.02;;;;;;;8.84;100.00;99627.13;5005559;28;20062;-69
2023/03/27 00:30:53;;;;;;;24.40;14.93;;;;;;;8.91;100.00;99662.00;5003292;28;20056;-69
2023/03/27 00:33:19;;;;;;;18.08;13.10;;;;;;;8.79;100.00;99660.31;4997935;28;20054;-69
2023/03/27 00:35:46;;;;;;;25.17;14.38;;;;;;;8.88;100.00;99620.16;5005466;28;20038;-69
2023/03/27 00:38:12;;;;;;;19.40;13.55;;;;;;;8.56;100.00;99607.25;5006543;28;20041;-69
2023/03/27 00:40:38;;;;;;;20.23;13.95;;;;;;;8.45;100.00;99641.28;5008218;28;20041;-70
2023/03/27 00:43:25;;;;;;;23.70;14.00;;;;;;;8.09;100.00;99507.25;5010218;28;20044;-71
2023/03/27 00:45:56;;;;;;;20.88;15.35;;;;;;;7.74;100.00;99521.31;5010211;28;20034;-71
2023/03/27 00:48:24;;;;;;;20.95;13.73;;;;;;;7.68;100.00;99510.00;5003864;28;20046;-69
2023/03/27 00:50:50;;;;;;;20.08;14.18;;;;;;;8.24;100.00;99569.91;5007165;28;20049;-70
2023/03/27 00:53:25;;;;;;;23.70;15.40;;;;;;;8.01;100.00;99506.41;4998969;28;20066;-72
2023/03/27 00:55:54;;;;;;;22.80;14.38;;;;;;;8.12;100.00;99501.13;5007906;28;20121;-70
2023/03/27 00:58:38;;;;;;;21.35;13.25;;;;;;;8.20;100.00;99586.47;5008395;28;20037;-69
2023/03/27 01:01:04;;;;;;;20.83;14.60;;;;;;;8.19;100.00;99583.84;5007940;28;20046;-71
2023/03/27 01:03:31;;;;;;;22.45;13.85;;;;;;;8.35;100.00;99627.34;5010378;28;20038;-71
2023/03/27 01:05:59;;;;;;;20.75;13.50;;;;;;;8.49;100.00;99613.38;5006544;28;20108;-69
2023/03/27 01:08:28;;;;;;;20.30;14.48;;;;;;;8.31;100.00;99549.84;5006646;28;20107;-71
2023/03/27 01:11:17;;;;;;;23.27;14.68;;;;;;;8.51;100.00;99595.94;5005022;28;20037;-71
2023/03/27 01:14:22;;;;;;;18.30;14.38;;;;;;;7.68;100.00;99448.22;5003873;28;20523;-70
2023/03/27 01:16:50;;;;;;;23.42;14.23;;;;;;;8.41;100.00;99567.22;5002282;28;20409;-69
2023/03/27 01:19:34;;;;;;;25.67;17.30;;;;;;;8.17;100.00;99567.28;5002251;28;20048;-72
2023/03/27 01:22:54;;;;;;;18.75;14.05;;;;;;;8.64;100.00;99555.78;5006164;28;20051;-70
2023/03/27 01:25:20;;;;;;;21.73;13.80;;;;;;;8.81;100.00;99548.69;4985757;28;20053;-69
2023/03/27 01:28:18;;;;;;;26.08;17.30;;;;;;;8.12;100.00;99533.34;5004745;28;20046;-69
2023/03/27 01:30:57;;;;;;;30.05;19.42;;;;;;;7.85;100.00;99536.94;4980612;28;20124;-70
2023/03/27 01:33:26;;;;;;;27.42;19.83;;;;;;;7.03;100.00;99386.66;5006355;28;20140;-70
2023/03/27 01:36:09;;;;;;;28.42;20.33;;;;;;;7.54;100.00;99503.09;5005615;28;20042;-71
2023/03/27 01:38:59;;;;;;;24.45;19.70;;;;;;;7.45;100.00;99470.94;5004821;28;20054;-70
2023/03/27 01:41:25;;;;;;;22.58;15.70;;;;;;;7.51;100.00;99466.53;5006457;28;20050;-70
2023/03/27 01:44:10;;;;;;;28.63;18.95;;;;;;;7.12;100.00;99425.78;5010316;28;20044;-72
2023/03/27 01:46:52;;;;;;;27.60;18.35;;;;;;;7.05;100.00;99419.69;5006573;28;20413;-69
2023/03/27 01:49:29;;;;;;;28.60;16.08;;;;;;;7.03;100.00;99423.19;5007719;28;20080;-72
2023/03/27 01:52:00;;;;;;;22.80;16.05;;;;;;;6.72;100.00;99386.72;5008396;28;20144;-70
2023/03/27 01:54:31;;;;;;;24.40;17.50;;;;;;;7.06;100.00;99399.69;5008461;28;20049;-69
2023/03/27 01:57:04;;;;;;;26.30;18.15;;;;;;;6.71;100.00;99288.53;5006030;28;20080;-70
2023/03/27 01:59:34;;;;;;;22.50;15.77;;;;;;;7.27;100.00;99388.34;5008656;28;20054;-69
2023/03/27 02:02:08;;;;;;;21.20;15.50;;;;;;;6.30;100.00;99409.31;5002270;28;20041;-69
2023/03/27 02:04:39;;;;;;;;;;;;;;;6.22;100.00;99411.88;5009315;28;20014;-69
2023/03/27 02:07:11;;;;;;;27.42;15.35;;;;;;;6.08;100.00;99270.38;5008202;28;19921;-70
2023/03/27 02:09:46;;;;;;;19.63;9.75;;;;;;;6.22;100.00;99346.75;5008351;28;20046;-69
2023/03/27 02:12:18;;;;;;;31.35;15.57;;;;;;;6.78;100.00;99406.69;5008283;28;20045;-69
2023/03/27 02:14:55;;;;;;;30.00;9.07;;;;;;;6.09;100.00;99335.50;5008573;28;20045;-69
2023/03/27 02:17:25;;;;;;;19.10;12.02;;;;;;;6.45;100.00;99393.66;5008203;28;20046;-69
2023/03/27 02:20:08;;;;;;;24.52;16.85;;;;;;;6.14;100.00;99278.19;5005393;28;20494;-69
2023/03/27 02:22:34;;;;;;;;;;;;;;;6.91;100.00;99419.72;5009168;28;20034;-69
2023/03/27 02:24:59;;;;;;;20.17;16.42;;;;;;;6.06;100.00;99301.66;5007653;28;19933;-69
2023/03/27 02:27:46;;;;;;;25.05;15.30;;;;;;;6.99;100.00;99414.47;5007276;28;20128;-70
2023/03/27 02:30:21;;;;;;;32.92;19.52;;;;;;;6.42;100.00;99284.25;5008043;28;20052;-69
2023/03/27 02:32:59;;;;;;;24.98;17.90;;;;;;;6.42;100.00;99333.75;5007134;28;20046;-70
2023/03/27 02:35:34;;;;;;;27.40;17.65;;;;;;;6.91;100.00;99414.50;5002107;28;20049;-70
2023/03/27 02:38:29;;;;;;;26.88;20.85;;;;;;;7.17;100.00;99411.84;5002217;28;20121;-70
2023/03/27 02:41:01;;;;;;;25.60;18.48;;;;;;;7.12;100.00;99417.94;5003338;28;20037;-70
2023/03/27 02:43:36;;;;;;;19.92;12.57;;;;;;;7.00;100.00;99391.88;5008710;28;20038;-69
2023/03/27 02:46:08;;;;;;;24.80;12.02;;;;;;;7.31;100.00;99424.84;5007987;28;20050;-70
2023/03/27 02:48:37;;;;;;;29.65;20.23;;;;;;;7.20;100.00;99405.75;5007957;28;20057;-70
2023/03/27 02:51:16;;;;;;;26.65;17.70;;;;;;;6.47;100.00;99394.53;5008175;28;20040;-69
2023/03/27 02:53:49;;;;;;;26.25;19.85;;;;;;;6.48;100.00;99404.09;5000270;28;20459;-69
2023/03/27 02:56:18;;;;;;;18.10;10.90;;;;;;;6.44;100.00;99385.84;5008269;28;20050;-73
2023/03/27 02:59:04;;;;;;;18.50;11.40;;;;;;;6.07;100.00;99346.78;5011196;28;20068;-70
2023/03/27 03:01:32;;;;;;;20.20;17.77;;;;;;;5.19;100.00;99246.81;5007410;28;20046;-71
2023/03/27 03:04:22;;;;;;;19.27;15.73;;;;;;;4.95;100.00;99196.47;5002851;28;20046;-69
2023/03/27 03:06:49;;;;;;;21.17;15.20;;;;;;;6.18;100.00;99307.69;4988405;28;20056;-68
2023/03/27 03:09:15;;;;;;;21.42;10.85;;;;;;;5.97;100.00;99209.63;4984775;28;20403;-69
2023/03/27 03:11:50;;;;;;;22.95;16.52;;;;;;;5.85;100.00;99200.03;4985194;28;20065;-68
2023/03/27 03:14:19;;;;;;;20.83;14.80;;;;;;;5.87;100.00;99196.56;4988151;28;20100;-72
2023/03/27 03:16:45;;;;;;;20.08;11.45;;;;;;;6.59;100.00;99328.50;4988943;28;20600;-69
2023/03/27 03:19:10;;;;;;;18.85;14.75;;;;;;;5.43;100.00;99199.16;5006886;28;20118;-70
2023/03/27 03:21:36;;;;;;;17.92;13.57;;;;;;;5.69;100.00;99240.84;5005922;28;20073;-69
2023/03/27 03:24:02;;;;;;;14.77;8.45;;;;;;;5.52;100.00;99226.94;5007521;28;20567;-69
2023/03/27 03:26:29;;;;;;;17.73;8.77;;;;;;;5.42;100.00;99258.13;5007426;28;20092;-69
2023/03/27 03:28:56;;;;;;;17.25;13.20;;;;;;;5.82;100.00;99298.97;5002166;28;20113;-69
2023/03/27 03:31:22;;;;;;;23.33;15.07;;;;;;;4.99;100.00;99127.19;5007377;28;20057;-69
2023/03/27 03:33:48;;;;;;;13.35;8.70;;;;;;;6.33;100.00;99363.28;5006832;28;20070;-70
2023/03/27 03:36:13;;;;;;;11.07;7.30;;;;;;;6.27;100.00;99365.88;5006803;28;20053;-69
2023/03/27 03:38:40;;;;;;;18.52;9.13;;;;;;;6.52;100.00;99376.31;5007012;28;20041;-69
2023/03/27 03:41:05;;;;;;;11.98;7.50;;;;;;;5.46;100.00;99277.25;5006278;28;20026;-70
2023/03/27 03:43:31;;;;;;;16.23;9.07;;;;;;;5.40;100.00;99272.88;5007340;28;20088;-68
2023/03/27 03:45:57;;;;;;;12.23;7.38;;;;;;;6.05;100.00;99371.94;5006726;28;20046;-69
2023/03/27 03:48:23;;;;;;;17.25;12.18;;;;;;;5.21;100.00;99247.69;5005861;28;20071;-69
2023/03/27 03:50:49;;;;;;;17.60;11.15;;;;;;;5.96;100.00;99371.91;5004879;28;20061;-69
2023/03/27 03:53:17;;;;;;;17.65;12.68;;;;;;;5.04;100.00;99217.31;5006976;28;20041;-69
2023/03/27 03:55:44;;;;;;;18.38;12.70;;;;;;;5.68;100.00;99351.84;5006983;28;20065;-69
2023/03/27 03:58:10;;;;;;;17.42;11.63;;;;;;;4.55;100.00;99190.28;5004692;28;20046;-69
2023/03/27 04:00:37;;;;;;;18.40;14.18;;;;;;;5.16;100.00;99288.41;5005164;28;20046;-69
2023/03/27 04:03:07;;;;;;;16.35;7.85;;;;;;;5.29;100.00;99303.19;5006860;28;20422;-71
2023/03/27 04:05:33;;;;;;;17.85;10.50;;;;;;;5.27;100.00;99303.19;4984718;28;20078;-70
2023/03/27 04:07:59;;;;;;;13.45;8.38;;;;;;;5.09;100.00;99297.91;4985648;28;20034;-71
2023/03/27 04:10:26;;;;;;;17.38;9.30;;;;;;;4.84;100.00;99253.63;5006736;28;20045;-70
2023/03/27 04:12:51;;;;;;;13.77;9.38;;;;;;;4.95;100.00;99284.00;5006621;28;20049;-70
2023/03/27 04:15:18;;;;;;;17.52;10.45;;;;;;;4.82;100.00;99275.25;5005345;28;20054;-71
2023/03/27 04:17:44;;;;;;;14.55;8.57;;;;;;;4.73;100.00;99246.63;4994430;28;20130;-69
2023/03/27 04:20:11;;;;;;;21.13;8.52;;;;;;;4.68;100.00;99248.34;4984840;28;20044;-69
2023/03/27 04:22:38;;;;;;;11.60;7.30;;;;;;;3.88;100.00;99118.97;4982550;28;20073;-70
2023/03/27 04:25:07;;;;;;;12.35;6.40;;;;;;;4.52;100.00;99219.72;4983761;28;20125;-69
2023/03/27 04:27:34;;;;;;;12.50;7.63;;;;;;;4.70;100.00;99244.03;4981659;28;20062;-72
2023/03/27 04:30:01;;;;;;;16.92;9.52;;;;;;;4.81;100.00;99245.81;4994439;28;20050;-70
2023/03/27 04:32:27;;;;;;;14.70;7.53;;;;;;;4.75;100.00;99231.91;5003048;28;20581;-71
2023/03/27 04:34:55;;;;;;;17.25;7.82;;;;;;;3.92;100.00;99104.28;5001268;28;20564;-72
2023/03/27 04:37:22;;;;;;;13.60;7.30;;;;;;;4.56;100.00;99212.78;5002608;28;20104;-71
2023/03/27 04:39:47;;;;;;;12.38;7.60;;;;;;;4.23;100.00;99142.50;4999253;28;20054;-72
2023/03/27 04:42:13;;;;;;;12.13;7.20;;;;;;;4.64;100.00;99214.56;4999696;28;20172;-71
2023/03/27 04:44:39;;;;;;;12.55;6.63;;;;;;;4.77;100.00;99233.66;5000623;28;20489;-70
2023/03/27 04:47:06;;;;;;;15.75;8.45;;;;;;;4.58;100.00;99209.34;5004660;28;20038;-72
2023/03/27 04:49:37;;;;;;;9.23;6.57;;;;;;;4.69;100.00;99195.53;5005072;28;20631;-73
2023/03/27 04:52:05;;;;;;;20.65;7.22;;;;;;;4.24;100.00;99107.06;5003950;28;20042;-72
2023/03/27 04:54:31;;;;;;;8.77;6.57;;;;;;;4.16;100.00;99077.56;5003697;28;20453;-72
2023/03/27 04:56:57;;;;;;;11.30;6.72;;;;;;;4.12;100.00;99074.13;5001690;28;20052;-71
2023/03/27 04:59:23;;;;;;;11.85;7.32;;;;;;;4.48;100.00;99127.03;5003441;28;20042;-70
2023/03/27 05:01:50;;;;;;;11.15;6.55;;;;;;;4.51;100.00;99137.44;5003009;28;20030;-70
2023/03/27 05:04:15;;;;;;;13.55;6.43;;;;;;;4.88;100.00;99204.28;5005078;28;20088;-73
2023/03/27 05:06:41;;;;;;;11.45;6.97;;;;;;;4.24;100.00;99099.25;5005412;28;20054;-69
2023/03/27 05:09:07;;;;;;;11.20;6.50;;;;;;;4.82;100.00;99159.22;5005742;28;20057;-73
2023/03/27 05:11:33;;;;;;;13.30;6.03;;;;;;;4.42;100.00;99067.28;5005771;28;20386;-70
2023/03/27 05:13:58;;;;;;;20.00;8.32;;;;;;;4.85;100.00;99070.00;5005508;28;20040;-70
2023/03/27 05:16:25;;;;;;;13.35;8.98;;;;;;;5.42;100.00;99164.50;5006191;28;20052;-69
2023/03/27 05:18:50;;;;;;;11.95;7.88;;;;;;;5.57;100.00;99200.06;5005181;28;20042;-72
2023/03/27 05:21:16;;;;;;;9.95;6.35;;;;;;;4.81;100.00;99076.91;4998547;28;20054;-73
2023/03/27 05:23:42;;;;;;;10.25;6.25;;;;;;;5.44;100.00;99193.13;4999114;28;20054;-70
2023/03/27 05:26:08;;;;;;;11.88;7.63;;;;;;;4.93;100.00;99095.97;5003229;28;20500;-70
2023/03/27 05:28:34;;;;;;;13.05;6.30;;;;;;;5.64;100.00;99195.72;5005289;28;20026;-72
2023/03/27 05:31:00;;;;;;;14.40;7.38;;;;;;;5.71;100.00;99161.91;5009219;28;20042;-72
2023/03/27 05:33:25;;;;;;;14.55;6.53;;;;;;;4.97;100.00;99049.19;5008218;28;20499;-71
2023/03/27 05:35:51;;;;;;;20.60;8.55;;;;;;;5.77;100.00;99181.84;5008369;28;20125;-73
2023/03/27 05:38:18;;;;;;;15.75;8.60;;;;;;;5.37;100.00;99061.31;5009328;28;20476;-71
2023/03/27 05:40:44;;;;;;;14.93;9.55;;;;;;;6.10;100.00;99217.41;5009767;28;20038;-71
2023/03/27 05:43:10;;;;;;;50.05;9.15;;;;;;;5.78;100.00;99076.00;5007342;28;20053;-72
2023/03/27 05:45:36;;;;;;;19.60;7.53;;;;;;;5.63;100.00;99075.16;5009174;28;20037;-71
2023/03/27 05:48:02;;;;;;;19.17;7.30;;;;;;;5.83;100.00;99105.47;5007152;28;20037;-70
2023/03/27 05:50:33;;;;;;;20.17;8.70;;;;;;;6.50;100.00;99212.13;5007075;28;20046;-72
2023/03/27 05:53:08;;;;;;;16.63;9.43;;;;;;;6.50;100.00;99206.91;5008332;28;20021;-71
2023/03/27 05:55:34;;;;;;;12.65;6.88;;;;;;;6.15;100.00;99112.38;5003273;28;20038;-72
2023/03/27 05:58:00;;;;;;;16.27;9.20;;;;;;;6.86;100.00;99209.38;5001845;28;20041;-72
2023/03/27 06:00:30;;;;;;;19.05;8.25;;;;;;;6.86;100.00;99189.41;5008145;28;20052;-72
2023/03/27 06:02:58;;;;;;;14.68;7.57;;;;;;;6.13;100.00;99066.38;5008629;28;20111;-72
2023/03/27 06:05:25;;;;;;;31.85;13.13;;;;;;;6.95;100.00;99144.16;5007958;28;20053;-72
2023/03/27 06:07:51;;;;;;;18.98;8.57;;;;;;;6.70;100.00;99070.44;5008026;28;20398;-72
2023/03/27 06:10:19;;;;;;;18.83;7.60;;;;;;;7.76;100.00;99174.88;5008495;28;20053;-74
2023/03/27 06:12:45;;;;;;;29.52;11.45;;;;;;;7.70;100.00;99189.72;5008514;28;20554;-71
2023/03/27 06:15:11;;;;;;;19.95;8.55;;;;;;;8.05;100.00;99212.91;5011010;28;20050;-72
2023/03/27 06:17:42;;;;;;;12.18;7.90;;;;;;;8.16;100.00;99216.31;5008434;28;20502;-71
2023/03/27 06:20:14;;;;;;;17.38;11.50;;;;;;;8.52;100.00;99247.34;5006576;28;20336;-71
2023/03/27 06:22:51;;;;;;;47.47;10.13;;;;;;;8.49;100.00;99211.63;4998009;28;20029;-72
2023/03/27 06:25:17;;;;;;;24.63;9.35;;;;;;;8.96;100.00;99254.69;5006626;28;20141;-74
2023/03/27 06:27:45;;;;;;;31.95;9.02;;;;;;;9.06;100.00;99263.28;5004474;28;20038;-71
2023/03/27 06:30:12;;;;;;;18.00;8.43;;;;;;;9.02;100.00;99238.91;5006210;28;20053;-72
2023/03/27 06:32:46;;;;;;;15.00;9.05;;;;;;;8.42;100.00;99135.03;5007931;28;20038;-71
2023/03/27 06:35:15;;;;;;;15.10;9.07;;;;;;;8.82;100.00;99217.38;5008063;28;20034;-73
2023/03/27 06:37:44;;;;;;;14.50;8.40;;;;;;;8.73;100.00;99147.72;5005135;28;20050;-71
2023/03/27 06:40:19;;;;;;;16.88;9.77;;;;;;;8.48;100.00;99131.50;5005649;28;20050;-70
2023/03/27 06:42:56;;;;;;;12.93;7.28;;;;;;;9.44;100.00;99230.50;5007584;28;20048;-71
2023/03/27 06:45:24;;;;;;;23.83;8.05;;;;;;;8.66;100.00;99162.66;5007798;28;20141;-72
2023/03/27 06:47:55;;;;;;;13.68;7.63;;;;;;;8.42;100.00;99111.50;5007157;28;20377;-71
2023/03/27 06:50:23;;;;;;;15.40;7.03;;;;;;;8.64;100.00;99208.00;5006318;28;20050;-71
2023/03/27 06:52:48;;;;;;;17.60;6.60;;;;;;;9.17;100.00;99213.44;5007928;28;20034;-71
2023/03/27 06:55:15;;;;;;;10.95;7.40;;;;;;;9.25;100.00;99182.78;5007773;28;20557;-71
2023/03/27 06:57:46;;;;;;;12.88;7.22;;;;;;;9.25;100.00;99102.50;5005373;28;20148;-71
2023/03/27 07:00:15;;;;;;;10.20;5.43;;;;;;;9.90;100.00;99165.16;5006349;28;20041;-72
2023/03/27 07:02:41;;;;;;;17.15;7.03;;;;;;;10.33;100.00;99182.75;5007038;28;20736;-70
2023/03/27 07:05:07;;;;;;;9.98;6.57;;;;;;;10.56;100.00;99186.69;5006693;28;20127;-72
2023/03/27 07:07:33;;;;;;;21.73;7.63;;;;;;;10.01;100.00;99052.28;5007880;28;20040;-70
2023/03/27 07:09:59;;;;;;;25.38;7.72;;;;;;;10.51;100.00;99178.03;5004817;28;20410;-72
2023/03/27 07:12:24;;;;;;;11.27;7.32;;;;;;;9.81;100.00;99065.78;5003340;28;20038;-74
2023/03/27 07:14:50;;;;;;;9.68;7.20;;;;;;;10.44;100.00;99181.66;5005622;28;20061;-72
2023/03/27 07:17:16;;;;;;;15.30;7.22;;;;;;;10.68;100.00;99168.09;5000812;28;20108;-73
2023/03/27 07:19:41;;;;;;;15.38;6.72;;;;;;;10.38;100.00;99159.06;5006027;28;20038;-73
2023/03/27 07:22:07;;;;;;;9.70;6.35;;;;;;;9.91;100.00;99041.09;5002433;28;20074;-71
2023/03/27 07:24:32;;;;;;;26.27;9.75;;;;;;;10.01;100.00;99044.41;4998549;28;20042;-68
2023/03/27 07:26:58;;;;;;;25.83;13.05;;;;;;;10.40;100.00;99038.44;5000312;28;20057;-68
2023/03/27 07:29:23;;;;;;;18.00;9.10;;;;;;;10.15;100.00;99070.34;5004657;28;20045;-70
2023/03/27 07:31:49;;;;;;;24.40;12.02;;;;;;;10.51;100.00;99138.69;5006034;28;20037;-71
2023/03/27 07:34:14;;;;;;;15.23;7.43;;;;;;;10.52;100.00;99103.72;5007100;28;20053;-69
2023/03/27 07:36:40;;;;;;;21.02;7.90;;;;;;;11.06;100.00;99118.28;5006629;28;20144;-69
2023/03/27 07:39:08;;;;;;;12.23;7.03;;;;;;;11.23;100.00;99121.38;5005901;28;20478;-70
2023/03/27 07:41:33;;;;;;;34.80;14.55;;;;;;;11.11;100.00;99037.66;5006539;28;20056;-69
2023/03/27 07:43:59;;;;;;;14.15;5.75;;;;;;;11.53;100.00;99121.53;4999867;28;20029;-69
2023/03/27 07:46:26;;;;;;;17.65;8.48;;;;;;;11.35;100.00;99051.94;5007093;28;20127;-70
2023/03/27 07:48:52;;;;;;;11.02;5.68;;;;;;;11.98;100.00;99137.91;5006023;28;20828;-70
2023/03/27 07:51:18;;;;;;;12.90;7.25;;;;;;;11.00;100.00;99106.16;5006220;28;20057;-70
2023/03/27 07:53:43;;;;;;;12.27;7.88;;;;;;;10.90;100.00;99041.66;5006309;28;20534;-70
2023/03/27 07:56:09;;;;;;;12.77;7.25;;;;;;;11.14;100.00;99038.47;5005733;28;20022;-70
2023/03/27 07:58:35;;;;;;;25.38;9.63;;;;;;;11.76;100.00;99127.09;5001990;28;20038;-68
2023/03/27 08:01:02;;;;;;;14.98;7.68;;;;;;;10.32;100.00;99002.75;5001818;28;20065;-69
2023/03/27 08:03:29;;;;;;;14.52;7.63;;;;;;;10.54;100.00;99021.47;5004654;28;20482;-69
2023/03/27 08:05:59;;;;;;;15.35;9.18;;;;;;;11.09;100.00;99045.56;5002622;28;20076;-68
2023/03/27 08:08:25;;;;;;;12.50;6.93;;;;;;;11.94;100.00;99110.00;5006430;28;20050;-70
2023/03/27 08:10:53;;;;;;;14.35;8.02;;;;;;;11.46;100.00;99018.38;5007036;28;20049;-69
2023/03/27 08:13:19;;;;;;;13.35;6.53;;;;;;;11.51;100.00;99028.78;5006412;28;20391;-69
2023/03/27 08:15:45;;;;;;;26.80;8.10;;;;;;;11.86;100.00;99111.94;5006581;28;20057;-69
2023/03/27 08:18:11;;;;;;;28.42;6.95;;;;;;;12.06;100.00;99095.69;5004653;28;20053;-69
2023/03/27 08:20:37;;;;;;;20.27;7.85;;;;;;;11.96;100.00;99076.66;5004475;28;20129;-69
2023/03/27 08:23:03;;;;;;;11.63;5.45;;;;;;;12.00;100.00;99103.72;5005312;28;20037;-69
2023/03/27 08:25:31;;;;;;;14.50;7.43;;;;;;;11.84;100.00;98988.44;5006858;28;20034;-72
2023/03/27 08:27:58;;;;;;;18.67;6.95;;;;;;;12.57;100.00;99057.38;5005545;28;20482;-69
2023/03/27 08:30:23;;;;;;;17.33;7.55;;;;;;;12.75;100.00;99083.16;5005378;28;20068;-69
2023/03/27 08:32:49;;;;;;;19.73;7.15;;;;;;;12.23;100.00;99069.75;5005587;28;20486;-68
2023/03/27 08:35:15;;;;;;;16.52;7.43;;;;;;;12.46;100.00;99071.72;5006361;28;20048;-69
2023/03/27 08:37:42;;;;;;;28.40;6.85;;;;;;;12.10;100.00;99039.44;5005417;28;20058;-70
2023/03/27 08:40:24;;;;;;;15.75;6.32;;;;;;;12.51;100.00;98991.81;5002151;28;20057;-70
2023/03/27 08:42:53;;;;;;;9.65;5.03;;;;;;;12.20;100.00;98925.22;5000928;28;20131;-68
2023/03/27 08:45:51;;;;;;;12.00;6.78;;;;;;;12.65;100.00;99036.97;5005995;28;20045;-68
2023/03/27 08:48:23;;;;;;;22.65;6.03;;;;;;;12.73;100.00;99015.66;4992200;28;20058;-70
2023/03/27 08:51:13;;;;;;;19.48;6.93;;;;;;;12.90;100.00;99016.03;5005977;28;20069;-68
2023/03/27 08:53:41;;;;;;;9.75;6.00;;;;;;;13.08;100.00;99010.13;5001553;28;20486;-69
2023/03/27 08:56:12;;;;;;;10.18;5.82;;;;;;;12.58;100.00;98990.72;5002516;28;20021;-70
2023/03/27 08:58:38;;;;;;;14.32;7.78;;;;;;;12.75;100.00;98972.59;4999621;28;20034;-69
2023/03/27 09:01:15;;;;;;;9.48;5.65;;;;;;;12.33;100.00;98865.19;5002510;28;20548;-70
2023/03/27 09:03:51;;;;;;;13.00;6.28;;;;;;;12.60;100.00;98838.91;5004999;28;20045;-68
2023/03/27 09:06:37;;;;;;;18.00;7.28;;;;;;;13.68;100.00;98950.13;5005473;28;20049;-68
2023/03/27 09:09:47;;;;;;;12.65;6.50;;;;;;;13.66;100.00;98985.38;5007362;28;20037;-70
2023/03/27 09:12:35;;;;;;;17.50;7.70;;;;;;;13.00;100.00;98872.59;4991336;28;20045;-70
2023/03/27 09:15:08;;;;;;;11.95;5.95;;;;;;;13.68;100.00;98981.78;5006689;28;20050;-71
2023/03/27 09:17:40;;;;;;;13.32;7.72;;;;;;;13.77;100.00;98988.50;5004209;28;20545;-70
2023/03/27 09:20:21;;;;;;;10.88;6.32;;;;;;;14.35;100.00;98990.72;5008364;28;20490;-69
2023/03/27 09:22:55;;;;;;;8.50;4.88;;;;;;;13.15;100.00;98844.00;5002417;28;20124;-70
2023/03/27 09:25:28;;;;;;;12.75;6.50;;;;;;;13.84;100.00;98952.22;5000544;28;20046;-68
2023/03/27 09:27:54;;;;;;;10.02;6.32;;;;;;;14.32;100.00;98962.69;5008385;28;20057;-70
2023/03/27 09:30:31;;;;;;;13.35;5.93;;;;;;;14.29;100.00;98961.97;5005684;28;20092;-68
2023/03/27 09:33:02;;;;;;;9.48;6.10;;;;;;;14.08;100.00;98939.91;5006921;28;20044;-69
2023/03/27 09:35:28;;;;;;;13.00;6.32;;;;;;;13.78;100.00;98849.63;5006225;28;20098;-69
2023/03/27 09:38:25;;;;;;;11.50;5.22;;;;;;;14.35;100.00;98846.47;5006602;28;20084;-69
2023/03/27 09:41:02;;;;;;;13.85;5.03;;;;;;;14.18;100.00;98858.63;5004034;28;20030;-69
2023/03/27 09:44:00;;;;;;;9.90;5.90;;;;;;;14.75;100.00;98946.97;5003129;28;20704;-68
2023/03/27 09:46:27;;;;;;;9.65;5.13;;;;;;;14.09;100.00;98852.81;4999726;28;20153;-71
2023/03/27 09:49:12;;;;;;;17.25;5.88;;;;;;;14.22;100.00;98865.50;5007800;28;20581;-70
2023/03/27 09:51:51;;;;;;;9.48;6.22;;;;;;;14.74;100.00;98924.13;5000957;28;20045;-69
2023/03/27 09:54:23;;;;;;;11.20;6.47;;;;;;;14.72;100.00;98921.53;5005971;28;20045;-69
2023/03/27 09:56:58;;;;;;;13.20;5.45;;;;;;;15.01;100.00;98921.25;5002057;28;20057;-70
2023/03/27 09:59:33;;;;;;;10.18;5.40;;;;;;;15.07;100.00;98918.34;5003190;28;20859;-69
2023/03/27 10:02:08;;;;;;;9.93;5.93;;;;;;;14.63;100.00;98832.16;5003575;28;20038;-69
2023/03/27 10:04:34;;;;;;;8.15;5.28;;;;;;;14.90;100.00;98893.50;5008229;28;20052;-70
2023/03/27 10:07:05;;;;;;;9.38;5.95;;;;;;;14.54;100.00;98792.97;5008515;28;20402;-69
2023/03/27 10:09:36;;;;;;;15.68;6.72;;;;;;;14.62;100.00;98787.34;5008398;28;20054;-70
2023/03/27 10:12:07;;;;;;;14.38;5.65;;;;;;;15.40;100.00;98879.91;5002869;28;20048;-70
2023/03/27 10:14:42;;;;;;;10.65;5.75;;;;;;;15.35;100.00;98858.09;5006433;28;20520;-69
2023/03/27 10:17:36;;;;;;;8.93;6.40;;;;;;;15.11;100.00;98867.97;5004449;28;20105;-68
2023/03/27 10:20:10;;;;;;;24.67;7.03;;;;;;;15.38;100.00;98857.09;5005172;28;20044;-70
2023/03/27 10:22:55;;;;;;;;;;;;;;;15.70;100.00;98849.50;5004458;28;20057;-69
2023/03/27 10:25:41;;;;;;;16.90;6.10;;;;;;;15.71;100.00;98854.75;5003157;28;20610;-68
2023/03/27 10:28:33;;;;;;;8.18;5.40;;;;;;;15.77;100.00;98840.38;5001451;28;20120;-69
2023/03/27 10:31:02;;;;;;;10.30;5.22;;;;;;;15.96;100.00;98837.72;5000360;28;20038;-68
2023/03/27 10:33:35;;;;;;;16.65;6.97;;;;;;;15.63;100.00;98712.28;5004787;28;20046;-69
2023/03/27 10:36:03;;;;;;;10.88;7.28;;;;;;;16.06;100.00;98830.19;5007255;28;20057;-70
2023/03/27 10:38:31;;;;;;;12.80;6.55;;;;;;;15.43;100.00;98728.25;5007839;28;20058;-69
2023/03/27 10:40:57;;;;;;;9.70;6.25;;;;;;;15.59;100.00;98729.25;5007269;28;20034;-70
2023/03/27 10:43:36;;;;;;;15.38;7.60;;;;;;;15.93;100.00;98713.56;5002482;28;20038;-70
2023/03/27 10:46:08;;;;;;;28.85;7.68;;;;;;;16.45;100.00;98820.31;5004519;28;20048;-71
2023/03/27 10:48:42;;;;;;;9.27;6.38;;;;;;;16.14;100.00;98809.53;5001245;28;20076;-71
2023/03/27 10:51:31;;;;;;;9.68;5.47;;;;;;;15.89;100.00;98775.47;5001627;28;20050;-69
2023/03/27 10:54:08;;;;;;;14.55;6.55;;;;;;;15.50;100.00;98697.94;5002689;28;20044;-70
2023/03/27 10:56:45;;;;;;;11.98;6.88;;;;;;;16.11;100.00;98749.69;5004147;28;20115;-70
2023/03/27 10:59:20;;;;;;;11.52;6.53;;;;;;;16.49;100.00;98754.84;5004071;28;20025;-68
2023/03/27 11:01:54;;;;;;;13.00;7.05;;;;;;;16.61;100.00;98754.22;5001971;28;20041;-68
2023/03/27 11:04:32;;;;;;;13.95;7.82;;;;;;;16.61;100.00;98763.94;5007829;28;20053;-69
2023/03/27 11:07:02;;;;;;;16.92;8.20;;;;;;;16.66;100.00;98732.78;5002897;28;20567;-70
2023/03/27 11:09:36;;;;;;;9.65;7.78;;;;;;;17.23;100.00;98772.19;5004237;28;20083;-69
2023/03/27 11:12:06;;;;;;;13.70;6.82;;;;;;;16.74;100.00;98732.38;5007875;28;20053;-68
2023/03/27 11:14:38;;;;;;;20.17;7.55;;;;;;;16.63;100.00;98752.34;5003582;28;20042;-69
2023/03/27 11:17:07;;;;;;;11.50;6.57;;;;;;;16.44;100.00;98728.59;4988045;28;20061;-69
2023/03/27 11:19:35;;;;;;;19.35;8.10;;;;;;;17.21;100.00;98763.50;5005741;28;20030;-71
2023/03/27 11:22:10;;;;;;;10.70;6.28;;;;;;;16.79;100.00;98646.47;5001795;28;20514;-69
2023/03/27 11:24:52;;;;;;;9.00;6.88;;;;;;;16.50;100.00;98632.09;5004820;28;20045;-69
2023/03/27 11:27:27;;;;;;;12.60;7.22;;;;;;;17.07;100.00;98737.75;5001656;28;20061;-71
2023/03/27 11:30:11;;;;;;;14.20;7.43;;;;;;;17.58;100.00;98722.53;5002357;28;20053;-68
2023/03/27 11:33:08;;;;;;;17.55;7.38;;;;;;;17.74;100.00;98719.88;5006093;28;20153;-69
2023/03/27 11:35:47;;;;;;;17.60;7.50;;;;;;;17.75;100.00;98702.16;5004739;28;20085;-70
2023/03/27 11:38:21;;;;;;;16.20;7.22;;;;;;;17.40;100.00;98606.94;5005756;28;20360;-69
2023/03/27 11:40:51;;;;;;;16.63;7.28;;;;;;;17.48;100.00;98621.44;5007056;28;20370;-69